Mekhanik Pogodin — UBFH6 — position and weather

sailwx.info

Track history (hours):
 
Tides and Currents Weather Stations Pressure Air Temp Water Temp Dewpoint Dewpoint Depression Visibility Wind Speed Wind Dir Waves Ship Positions

Mekhanik Pogodin

Last reported at 2016-May-01 21:33 UTC. Time now 2016-May-02 23:14 UTC.
Position N 47°04' E 038°46'.

Length 141 m; draft 2.8 m.

Type: Ship (hazmat cat B). MMSI: 273354720.

Date/timePositionNaut miles runAvg speedWind from/ knotsBaromVisibWave heightAir tempDewpointWater temp
2016-May-01 21:33N 47°04' E 038°46'7 6.8
2016-May-01 20:29N 47°00' E 038°37'9 8.3
2016-May-01 19:27N 47°00' E 038°25'8 8.4
2016-May-01 18:33N 46°60' E 038°14'9 9.0
2016-May-01 17:33N 46°56' E 038°02'96 8.7
2016-May-01 06:25N 45°34' E 036°50'8 8.8
2016-May-01 05:33N 45°27' E 036°45'8 7.9
2016-May-01 04:33N 45°21' E 036°38'7 7.4
2016-May-01 03:33N 45°17' E 036°29'417 8.7
2016-Apr-29 03:32N 40°59' E 028°60'5 4.7
2016-Apr-29 02:24N 40°57' E 028°53'1 0.0
2016-Apr-28 06:21N 40°57' E 028°53'247 7.5
2016-Apr-26 21:17N 37°33' E 025°55'  
2016-Apr-24 04:21N 36°48' E 034°39'0 0.0
2016-Apr-24 03:33N 36°48' E 034°39'0 0.0
2016-Apr-23 14:30N 36°48' E 034°39'0 0.0
2016-Apr-23 04:27N 36°48' E 034°39'  
Track history (hours):
 
Tides and Currents Weather Stations Pressure Air Temp Water Temp Dewpoint Dewpoint Depression Visibility Wind Speed Wind Dir Waves Ship Positions

Mekhanik Pogodin

Last reported at 2016-May-01 21:33 UTC. Time now 2016-May-02 23:14 UTC.
Position N 47°04' E 038°46'.

Length 141 m; draft 2.8 m.

Type: Ship (hazmat cat B). MMSI: 273354720.

Date/timePositionNaut miles runAvg speedWind from/ knotsBaromVisibWave heightAir tempDewpointWater temp
2016-May-01 21:33N 47°04' E 038°46'7 6.8
2016-May-01 20:29N 47°00' E 038°37'9 8.3
2016-May-01 19:27N 47°00' E 038°25'8 8.4
2016-May-01 18:33N 46°60' E 038°14'9 9.0
2016-May-01 17:33N 46°56' E 038°02'96 8.7
2016-May-01 06:25N 45°34' E 036°50'8 8.8
2016-May-01 05:33N 45°27' E 036°45'8 7.9
2016-May-01 04:33N 45°21' E 036°38'7 7.4
2016-May-01 03:33N 45°17' E 036°29'417 8.7
2016-Apr-29 03:32N 40°59' E 028°60'5 4.7
2016-Apr-29 02:24N 40°57' E 028°53'1 0.0
2016-Apr-28 06:21N 40°57' E 028°53'247 7.5
2016-Apr-26 21:17N 37°33' E 025°55'  
2016-Apr-24 04:21N 36°48' E 034°39'0 0.0
2016-Apr-24 03:33N 36°48' E 034°39'0 0.0
2016-Apr-23 14:30N 36°48' E 034°39'0 0.0
2016-Apr-23 04:27N 36°48' E 034°39'  

Dump ship's entire track history